sensor_id;sensor_type;location;lat;lon;timestamp;pressure;altitude;pressure_sealevel;temperature;humidity
45541;BME280;31265;49.680;8.608;2023-01-27T00:01:36;101030.63;;;-1.16;100.00
45541;BME280;31265;49.680;8.608;2023-01-27T00:04:04;101027.91;;;-1.16;100.00
45541;BME280;31265;49.680;8.608;2023-01-27T00:06:34;101027.63;;;-1.18;100.00
45541;BME280;31265;49.680;8.608;2023-01-27T00:09:02;101028.47;;;-1.12;100.00
45541;BME280;31265;49.680;8.608;2023-01-27T00:11:32;101028.78;;;-1.10;100.00
45541;BME280;31265;49.680;8.608;2023-01-27T00:14:17;101026.69;;;-1.15;100.00
45541;BME280;31265;49.680;8.608;2023-01-27T00:16:46;101022.75;;;-1.14;100.00
45541;BME280;31265;49.680;8.608;2023-01-27T00:19:14;101015.78;;;-1.15;100.00
45541;BME280;31265;49.680;8.608;2023-01-27T00:21:46;101018.34;;;-1.12;100.00
45541;BME280;31265;49.680;8.608;2023-01-27T00:24:32;101010.63;;;-1.13;100.00
45541;BME280;31265;49.680;8.608;2023-01-27T00:27:06;101011.38;;;-1.13;100.00
45541;BME280;31265;49.680;8.608;2023-01-27T00:29:39;101007.63;;;-1.15;100.00
45541;BME280;31265;49.680;8.608;2023-01-27T00:32:09;101009.72;;;-1.10;100.00
45541;BME280;31265;49.680;8.608;2023-01-27T00:34:54;101004.25;;;-1.10;100.00
45541;BME280;31265;49.680;8.608;2023-01-27T00:37:23;101002.28;;;-1.10;100.00
45541;BME280;31265;49.680;8.608;2023-01-27T00:39:53;101002.13;;;-1.06;100.00
45541;BME280;31265;49.680;8.608;2023-01-27T00:42:24;101002.13;;;-1.06;100.00
45541;BME280;31265;49.680;8.608;2023-01-27T00:44:52;100990.00;;;-1.05;100.00
45541;BME280;31265;49.680;8.608;2023-01-27T00:47:40;100996.19;;;-1.04;100.00
45541;BME280;31265;49.680;8.608;2023-01-27T00:50:09;101000.16;;;-1.05;100.00
45541;BME280;31265;49.680;8.608;2023-01-27T00:52:40;100999.22;;;-1.02;100.00
45541;BME280;31265;49.680;8.608;2023-01-27T00:55:09;100997.72;;;-1.03;100.00
45541;BME280;31265;49.680;8.608;2023-01-27T00:57:39;100992.56;;;-1.01;100.00
45541;BME280;31265;49.680;8.608;2023-01-27T01:00:08;101004.66;;;-1.02;100.00
45541;BME280;31265;49.680;8.608;2023-01-27T01:02:39;101005.13;;;-1.04;100.00
45541;BME280;31265;49.680;8.608;2023-01-27T01:05:08;101005.88;;;-1.03;100.00
45541;BME280;31265;49.680;8.608;2023-01-27T01:07:36;101002.56;;;-1.08;100.00
45541;BME280;31265;49.680;8.608;2023-01-27T01:10:08;101004.84;;;-1.06;100.00
45541;BME280;31265;49.680;8.608;2023-01-27T01:12:38;101003.91;;;-1.03;100.00
45541;BME280;31265;49.680;8.608;2023-01-27T01:15:07;100999.97;;;-1.02;100.00
45541;BME280;31265;49.680;8.608;2023-01-27T01:17:35;101006.00;;;-0.98;100.00
45541;BME280;31265;49.680;8.608;2023-01-27T01:20:04;101003.56;;;-0.96;100.00
45541;BME280;31265;49.680;8.608;2023-01-27T01:22:33;101009.00;;;-0.96;100.00
45541;BME280;31265;49.680;8.608;2023-01-27T01:25:02;101006.56;;;-0.94;100.00
45541;BME280;31265;49.680;8.608;2023-01-27T01:27:30;101004.91;;;-0.91;100.00
45541;BME280;31265;49.680;8.608;2023-01-27T01:30:00;101008.66;;;-0.89;100.00
45541;BME280;31265;49.680;8.608;2023-01-27T01:32:29;101001.81;;;-0.84;100.00
45541;BME280;31265;49.680;8.608;2023-01-27T01:34:58;101002.91;;;-0.91;100.00
45541;BME280;31265;49.680;8.608;2023-01-27T01:37:28;101007.44;;;-0.88;100.00
45541;BME280;31265;49.680;8.608;2023-01-27T01:39:56;101003.50;;;-0.87;100.00
45541;BME280;31265;49.680;8.608;2023-01-27T01:42:25;101001.69;;;-0.90;100.00
45541;BME280;31265;49.680;8.608;2023-01-27T01:48:19;101006.69;;;-0.88;100.00
45541;BME280;31265;49.680;8.608;2023-01-27T01:50:53;101006.97;;;-0.86;100.00
45541;BME280;31265;49.680;8.608;2023-01-27T01:53:26;101013.47;;;-0.83;100.00
45541;BME280;31265;49.680;8.608;2023-01-27T01:56:02;101010.16;;;-0.88;100.00
45541;BME280;31265;49.680;8.608;2023-01-27T01:58:33;101015.59;;;-0.88;100.00
45541;BME280;31265;49.680;8.608;2023-01-27T02:01:04;101003.97;;;-0.88;100.00
45541;BME280;31265;49.680;8.608;2023-01-27T02:03:34;101006.97;;;-0.86;100.00
45541;BME280;31265;49.680;8.608;2023-01-27T02:06:06;100995.88;;;-0.82;100.00
45541;BME280;31265;49.680;8.608;2023-01-27T02:08:38;101002.84;;;-0.81;100.00
45541;BME280;31265;49.680;8.608;2023-01-27T02:11:09;100990.44;;;-0.82;100.00
45541;BME280;31265;49.680;8.608;2023-01-27T02:13:38;100992.88;;;-0.84;100.00
45541;BME280;31265;49.680;8.608;2023-01-27T02:16:07;100994.84;;;-0.85;100.00
45541;BME280;31265;49.680;8.608;2023-01-27T02:18:38;100989.88;;;-0.87;100.00
45541;BME280;31265;49.680;8.608;2023-01-27T02:21:08;100986.38;;;-0.87;100.00
45541;BME280;31265;49.680;8.608;2023-01-27T02:23:54;100990.78;;;-0.90;100.00
45541;BME280;31265;49.680;8.608;2023-01-27T02:26:30;100989.28;;;-0.91;100.00
45541;BME280;31265;49.680;8.608;2023-01-27T02:29:02;100990.78;;;-0.90;100.00
45541;BME280;31265;49.680;8.608;2023-01-27T02:31:31;100995.50;;;-0.90;100.00
45541;BME280;31265;49.680;8.608;2023-01-27T02:34:03;100985.34;;;-0.90;100.00
45541;BME280;31265;49.680;8.608;2023-01-27T02:36:34;100988.66;;;-0.85;100.00
45541;BME280;31265;49.680;8.608;2023-01-27T02:39:04;100983.66;;;-0.87;100.00
45541;BME280;31265;49.680;8.608;2023-01-27T02:41:39;100986.66;;;-0.85;100.00
45541;BME280;31265;49.680;8.608;2023-01-27T02:44:10;100994.38;;;-0.83;100.00
45541;BME280;31265;49.680;8.608;2023-01-27T02:46:38;100991.38;;;-0.85;100.00
45541;BME280;31265;49.680;8.608;2023-01-27T02:49:07;100998.31;;;-0.84;100.00
45541;BME280;31265;49.680;8.608;2023-01-27T02:51:36;100997.22;;;-0.78;100.00
45541;BME280;31265;49.680;8.608;2023-01-27T02:54:06;101003.13;;;-0.79;100.00
45541;BME280;31265;49.680;8.608;2023-01-27T02:56:34;101002.47;;;-0.74;100.00
45541;BME280;31265;49.680;8.608;2023-01-27T02:59:04;101004.63;;;-0.78;100.00
45541;BME280;31265;49.680;8.608;2023-01-27T03:01:36;101002.06;;;-0.82;100.00
45541;BME280;31265;49.680;8.608;2023-01-27T03:04:04;101000.41;;;-0.79;100.00
45541;BME280;31265;49.680;8.608;2023-01-27T03:06:34;100999.19;;;-0.78;100.00
45541;BME280;31265;49.680;8.608;2023-01-27T03:09:03;101009.59;;;-0.77;100.00
45541;BME280;31265;49.680;8.608;2023-01-27T03:11:36;101000.41;;;-0.79;100.00
45541;BME280;31265;49.680;8.608;2023-01-27T03:14:24;101010.84;;;-0.78;100.00
45541;BME280;31265;49.680;8.608;2023-01-27T03:17:10;101009.72;;;-0.71;100.00
45541;BME280;31265;49.680;8.608;2023-01-27T03:19:56;101007.19;;;-0.75;100.00
45541;BME280;31265;49.680;8.608;2023-01-27T03:22:25;101009.06;;;-0.81;100.00
45541;BME280;31265;49.680;8.608;2023-01-27T03:24:53;101007.38;;;-0.78;100.00
45541;BME280;31265;49.680;8.608;2023-01-27T03:27:23;101005.47;;;-0.72;100.00
45541;BME280;31265;49.680;8.608;2023-01-27T03:30:19;100998.84;;;-0.71;100.00
45541;BME280;31265;49.680;8.608;2023-01-27T03:33:03;101002.75;;;-0.72;100.00
45541;BME280;31265;49.680;8.608;2023-01-27T03:36:02;101009.91;;;-0.75;100.00
45541;BME280;31265;49.680;8.608;2023-01-27T03:38:50;101011.88;;;-0.75;100.00
45541;BME280;31265;49.680;8.608;2023-01-27T03:41:36;101010.66;;;-0.74;100.00
45541;BME280;31265;49.680;8.608;2023-01-27T03:44:25;101014.91;;;-0.73;100.00
45541;BME280;31265;49.680;8.608;2023-01-27T03:47:13;101009.72;;;-0.71;100.00
45541;BME280;31265;49.680;8.608;2023-01-27T03:49:41;101014.16;;;-0.74;100.00
45541;BME280;31265;49.680;8.608;2023-01-27T03:52:09;101025.03;;;-0.74;100.00
45541;BME280;31265;49.680;8.608;2023-01-27T03:54:40;101026.63;;;-0.67;100.00
45541;BME280;31265;49.680;8.608;2023-01-27T03:57:09;101027.78;;;-0.74;100.00
45541;BME280;31265;49.680;8.608;2023-01-27T03:59:39;101024.28;;;-0.74;100.00
45541;BME280;31265;49.680;8.608;2023-01-27T04:02:07;101031.06;;;-0.70;100.00
45541;BME280;31265;49.680;8.608;2023-01-27T04:04:54;101014.59;;;-0.75;100.00
45541;BME280;31265;49.680;8.608;2023-01-27T04:07:41;101020.34;;;-0.73;100.00
45541;BME280;31265;49.680;8.608;2023-01-27T04:10:10;101026.38;;;-0.69;100.00
45541;BME280;31265;49.680;8.608;2023-01-27T04:12:38;101029.09;;;-0.69;100.00
45541;BME280;31265;49.680;8.608;2023-01-27T04:15:06;101026.94;;;-0.65;100.00
45541;BME280;31265;49.680;8.608;2023-01-27T04:17:38;101021.78;;;-0.63;100.00
45541;BME280;31265;49.680;8.608;2023-01-27T04:20:10;101027.88;;;-0.68;100.00
45541;BME280;31265;49.680;8.608;2023-01-27T04:22:40;101023.16;;;-0.68;100.00
45541;BME280;31265;49.680;8.608;2023-01-27T04:25:08;101033.22;;;-0.74;100.00
45541;BME280;31265;49.680;8.608;2023-01-27T04:27:40;101033.03;;;-0.70;100.00
45541;BME280;31265;49.680;8.608;2023-01-27T04:30:10;101031.63;;;-0.66;100.00
45541;BME280;31265;49.680;8.608;2023-01-27T04:32:39;101031.84;;;-0.69;100.00
45541;BME280;31265;49.680;8.608;2023-01-27T04:35:09;101033.97;;;-0.73;100.00
45541;BME280;31265;49.680;8.608;2023-01-27T04:37:38;101036.69;;;-0.73;100.00
45541;BME280;31265;49.680;8.608;2023-01-27T04:40:08;101038.19;;;-0.72;100.00
45541;BME280;31265;49.680;8.608;2023-01-27T04:42:36;101038.19;;;-0.72;100.00
45541;BME280;31265;49.680;8.608;2023-01-27T04:45:07;101033.13;;;-0.65;100.00
45541;BME280;31265;49.680;8.608;2023-01-27T04:47:35;101034.81;;;-0.67;100.00
45541;BME280;31265;49.680;8.608;2023-01-27T04:50:04;101031.19;;;-0.64;100.00
45541;BME280;31265;49.680;8.608;2023-01-27T04:52:34;101036.34;;;-0.66;100.00
45541;BME280;31265;49.680;8.608;2023-01-27T04:55:03;101045.06;;;-0.62;100.00
45541;BME280;31265;49.680;8.608;2023-01-27T04:57:31;101042.19;;;-0.58;100.00
45541;BME280;31265;49.680;8.608;2023-01-27T04:59:59;101041.91;;;-0.60;100.00
45541;BME280;31265;49.680;8.608;2023-01-27T05:02:31;101032.97;;;-0.61;100.00
45541;BME280;31265;49.680;8.608;2023-01-27T05:04:59;101040.66;;;-0.59;100.00
45541;BME280;31265;49.680;8.608;2023-01-27T05:07:30;101037.19;;;-0.60;100.00
45541;BME280;31265;49.680;8.608;2023-01-27T05:10:00;101044.06;;;-0.50;100.00
45541;BME280;31265;49.680;8.608;2023-01-27T05:12:30;101045.28;;;-0.51;100.00
45541;BME280;31265;49.680;8.608;2023-01-27T05:14:58;101034.50;;;-0.45;100.00
45541;BME280;31265;49.680;8.608;2023-01-27T05:17:29;101042.56;;;-0.51;100.00
45541;BME280;31265;49.680;8.608;2023-01-27T05:19:58;101041.06;;;-0.52;100.00
45541;BME280;31265;49.680;8.608;2023-01-27T05:22:26;101048.78;;;-0.50;100.00
45541;BME280;31265;49.680;8.608;2023-01-27T05:24:54;101039.38;;;-0.49;100.00
45541;BME280;31265;49.680;8.608;2023-01-27T05:27:25;101046.34;;;-0.48;100.00
45541;BME280;31265;49.680;8.608;2023-01-27T05:29:53;101051.50;;;-0.50;100.00
45541;BME280;31265;49.680;8.608;2023-01-27T05:32:22;101052.25;;;-0.50;100.00
45541;BME280;31265;49.680;8.608;2023-01-27T05:34:51;101042.13;;;-0.49;100.00
45541;BME280;31265;49.680;8.608;2023-01-27T05:37:19;101042.13;;;-0.49;100.00
45541;BME280;31265;49.680;8.608;2023-01-27T05:39:48;101044.66;;;-0.46;100.00
45541;BME280;31265;49.680;8.608;2023-01-27T05:42:16;101048.59;;;-0.47;100.00
45541;BME280;31265;49.680;8.608;2023-01-27T05:44:45;101049.06;;;-0.48;100.00
45541;BME280;31265;49.680;8.608;2023-01-27T05:47:16;101051.03;;;-0.49;100.00
45541;BME280;31265;49.680;8.608;2023-01-27T05:49:45;101057.63;;;-0.40;100.00
45541;BME280;31265;49.680;8.608;2023-01-27T05:52:13;101058.22;;;-0.36;100.00
45541;BME280;31265;49.680;8.608;2023-01-27T05:54:41;101055.94;;;-0.38;100.00
45541;BME280;31265;49.680;8.608;2023-01-27T05:57:09;101063.81;;;-0.40;100.00
45541;BME280;31265;49.680;8.608;2023-01-27T05:59:37;101062.78;;;-0.43;100.00
45541;BME280;31265;49.680;8.608;2023-01-27T06:02:08;101071.75;;;-0.42;100.00
45541;BME280;31265;49.680;8.608;2023-01-27T06:04:42;101078.59;;;-0.47;100.00
45541;BME280;31265;49.680;8.608;2023-01-27T06:07:10;101074.94;;;-0.44;100.00
45541;BME280;31265;49.680;8.608;2023-01-27T06:09:40;101069.47;;;-0.44;100.00
45541;BME280;31265;49.680;8.608;2023-01-27T06:12:10;101067.78;;;-0.41;100.00
45541;BME280;31265;49.680;8.608;2023-01-27T06:14:39;101071.25;;;-0.40;100.00
45541;BME280;31265;49.680;8.608;2023-01-27T06:17:09;101077.28;;;-0.36;100.00
45541;BME280;31265;49.680;8.608;2023-01-27T06:19:38;101069.13;;;-0.36;100.00
45541;BME280;31265;49.680;8.608;2023-01-27T06:22:06;101069.13;;;-0.36;100.00
45541;BME280;31265;49.680;8.608;2023-01-27T06:24:34;101070.63;;;-0.35;100.00
45541;BME280;31265;49.680;8.608;2023-01-27T06:27:03;101068.19;;;-0.33;100.00
45541;BME280;31265;49.680;8.608;2023-01-27T06:29:31;101074.88;;;-0.34;100.00
45541;BME280;31265;49.680;8.608;2023-01-27T06:32:01;101064.22;;;-0.32;100.00
45541;BME280;31265;49.680;8.608;2023-01-27T06:34:33;101058.13;;;-0.27;100.00
45541;BME280;31265;49.680;8.608;2023-01-27T06:37:01;101063.09;;;-0.26;100.00
45541;BME280;31265;49.680;8.608;2023-01-27T06:39:31;101065.56;;;-0.13;100.00
45541;BME280;31265;49.680;8.608;2023-01-27T06:42:00;101065.00;;;-0.17;100.00
45541;BME280;31265;49.680;8.608;2023-01-27T06:44:30;101066.13;;;-0.09;100.00
45541;BME280;31265;49.680;8.608;2023-01-27T06:47:01;101071.00;;;-0.13;100.00
45541;BME280;31265;49.680;8.608;2023-01-27T06:49:32;101080.63;;;-0.03;100.00
45541;BME280;31265;49.680;8.608;2023-01-27T06:52:00;101090.97;;;0.08;100.00
45541;BME280;31265;49.680;8.608;2023-01-27T06:54:29;101096.34;;;0.03;100.00
45541;BME280;31265;49.680;8.608;2023-01-27T06:56:58;101096.53;;;0.14;100.00
45541;BME280;31265;49.680;8.608;2023-01-27T06:59:26;101094.25;;;0.27;100.00
45541;BME280;31265;49.680;8.608;2023-01-27T07:01:54;101095.59;;;0.17;100.00
45541;BME280;31265;49.680;8.608;2023-01-27T07:04:22;101101.41;;;0.10;100.00
45541;BME280;31265;49.680;8.608;2023-01-27T07:06:52;101107.72;;;0.16;100.00
45541;BME280;31265;49.680;8.608;2023-01-27T07:09:20;101106.13;;;0.09;100.00
45541;BME280;31265;49.680;8.608;2023-01-27T07:11:50;101108.00;;;0.03;100.00
45541;BME280;31265;49.680;8.608;2023-01-27T07:14:19;101108.47;;;0.02;100.00
45541;BME280;31265;49.680;8.608;2023-01-27T07:16:49;101116.38;;;-0.01;100.00
45541;BME280;31265;49.680;8.608;2023-01-27T07:19:17;101110.91;;;-0.01;100.00
45541;BME280;31265;49.680;8.608;2023-01-27T07:21:46;101116.84;;;-0.02;100.00
45541;BME280;31265;49.680;8.608;2023-01-27T07:24:16;101114.22;;;0.04;100.00
45541;BME280;31265;49.680;8.608;2023-01-27T07:26:45;101115.91;;;0.16;100.00
45541;BME280;31265;49.680;8.608;2023-01-27T07:29:14;101124.41;;;0.18;100.00
45541;BME280;31265;49.680;8.608;2023-01-27T07:31:43;101128.81;;;0.15;100.00
45541;BME280;31265;49.680;8.608;2023-01-27T07:34:11;101126.09;;;0.15;100.00
45541;BME280;31265;49.680;8.608;2023-01-27T07:36:40;101122.41;;;0.18;100.00
45541;BME280;31265;49.680;8.608;2023-01-27T07:39:08;101130.69;;;0.24;100.00
45541;BME280;31265;49.680;8.608;2023-01-27T07:41:38;101134.47;;;0.41;100.00
45541;BME280;31265;49.680;8.608;2023-01-27T07:44:10;101134.56;;;0.62;100.00
45541;BME280;31265;49.680;8.608;2023-01-27T07:46:39;101139.06;;;0.50;100.00
45541;BME280;31265;49.680;8.608;2023-01-27T07:49:09;101148.75;;;0.66;100.00
45541;BME280;31265;49.680;8.608;2023-01-27T07:51:39;101151.78;;;0.53;100.00
45541;BME280;31265;49.680;8.608;2023-01-27T07:54:10;101151.97;;;0.64;100.00
45541;BME280;31265;49.680;8.608;2023-01-27T07:56:39;101154.41;;;0.62;100.00
45541;BME280;31265;49.680;8.608;2023-01-27T07:59:10;101153.72;;;0.82;100.00
45541;BME280;31265;49.680;8.608;2023-01-27T08:01:39;101154.69;;;0.79;100.00
45541;BME280;31265;49.680;8.608;2023-01-27T08:04:08;101168.16;;;0.68;100.00
45541;BME280;31265;49.680;8.608;2023-01-27T08:06:37;101159.28;;;0.73;100.00
45541;BME280;31265;49.680;8.608;2023-01-27T08:09:06;101161.53;;;0.90;100.00
45541;BME280;31265;49.680;8.608;2023-01-27T08:11:34;101159.63;;;0.96;100.00
45541;BME280;31265;49.680;8.608;2023-01-27T08:14:04;101164.31;;;1.10;100.00
45541;BME280;31265;49.680;8.608;2023-01-27T08:16:33;101160.78;;;1.24;100.00
45541;BME280;31265;49.680;8.608;2023-01-27T08:19:02;101157.25;;;1.39;100.00
45541;BME280;31265;49.680;8.608;2023-01-27T08:21:30;101163.59;;;1.50;100.00
45541;BME280;31265;49.680;8.608;2023-01-27T08:23:59;101156.69;;;1.55;100.00
45541;BME280;31265;49.680;8.608;2023-01-27T08:26:27;101155.06;;;1.63;100.00
45541;BME280;31265;49.680;8.608;2023-01-27T08:28:56;101161.41;;;1.75;100.00
45541;BME280;31265;49.680;8.608;2023-01-27T08:31:25;101165.56;;;1.91;100.00
45541;BME280;31265;49.680;8.608;2023-01-27T08:33:54;101158.31;;;1.88;100.00
45541;BME280;31265;49.680;8.608;2023-01-27T08:36:22;101173.91;;;2.02;100.00
45541;BME280;31265;49.680;8.608;2023-01-27T08:38:51;101175.34;;;1.98;100.00
45541;BME280;31265;49.680;8.608;2023-01-27T08:41:22;101171.53;;;1.89;100.00
45541;BME280;31265;49.680;8.608;2023-01-27T08:43:53;101181.16;;;1.85;100.00
45541;BME280;31265;49.680;8.608;2023-01-27T08:46:22;101174.94;;;1.84;100.00
45541;BME280;31265;49.680;8.608;2023-01-27T08:48:52;101178.66;;;1.81;100.00
45541;BME280;31265;49.680;8.608;2023-01-27T08:51:21;101181.16;;;1.85;100.00
45541;BME280;31265;49.680;8.608;2023-01-27T08:53:50;101190.47;;;1.72;100.00
45541;BME280;31265;49.680;8.608;2023-01-27T08:56:18;101182.88;;;1.82;100.00
45541;BME280;31265;49.680;8.608;2023-01-27T08:58:47;101189.00;;;1.71;100.00
45541;BME280;31265;49.680;8.608;2023-01-27T09:01:15;101190.34;;;1.82;100.00
45541;BME280;31265;49.680;8.608;2023-01-27T09:03:44;101197.03;;;2.01;100.00
45541;BME280;31265;49.680;8.608;2023-01-27T09:06:14;101181.72;;;1.89;100.00
45541;BME280;31265;49.680;8.608;2023-01-27T09:08:44;101184.41;;;1.83;100.00
45541;BME280;31265;49.680;8.608;2023-01-27T09:11:41;101195.81;;;1.82;100.00
45541;BME280;31265;49.680;8.608;2023-01-27T09:14:10;101189.94;;;1.89;100.00
45541;BME280;31265;49.680;8.608;2023-01-27T09:16:38;101191.97;;;1.94;100.00
45541;BME280;31265;49.680;8.608;2023-01-27T09:19:07;101200.84;;;2.09;100.00
45541;BME280;31265;49.680;8.608;2023-01-27T09:21:37;101199.22;;;1.97;100.00
45541;BME280;31265;49.680;8.608;2023-01-27T09:24:07;101210.09;;;2.12;100.00
45541;BME280;31265;49.680;8.608;2023-01-27T09:26:36;101203.47;;;1.98;100.00
45541;BME280;31265;49.680;8.608;2023-01-27T09:29:06;101204.22;;;1.99;100.00
45541;BME280;31265;49.680;8.608;2023-01-27T09:31:36;101206.56;;;2.06;100.00
45541;BME280;31265;49.680;8.608;2023-01-27T09:34:04;101209.63;;;2.13;100.00
45541;BME280;31265;49.680;8.608;2023-01-27T09:36:38;101207.56;;;2.08;100.00
45541;BME280;31265;49.680;8.608;2023-01-27T09:39:09;101214.41;;;2.19;100.00
45541;BME280;31265;49.680;8.608;2023-01-27T09:42:07;101223.22;;;2.28;100.00
45541;BME280;31265;49.680;8.608;2023-01-27T09:47:47;101224.13;;;1.99;100.00
45541;BME280;31265;49.680;8.608;2023-01-27T09:50:38;101223.84;;;1.97;100.00
45541;BME280;31265;49.680;8.608;2023-01-27T09:53:28;101221.03;;;2.12;100.00
45541;BME280;31265;49.680;8.608;2023-01-27T09:56:06;101219.66;;;2.22;100.00
45541;BME280;31265;49.680;8.608;2023-01-27T09:58:55;101216.38;;;2.18;100.00
45541;BME280;31265;49.680;8.608;2023-01-27T10:01:39;101216.56;;;2.35;100.00
45541;BME280;31265;49.680;8.608;2023-01-27T10:04:29;101223.63;;;2.21;100.00
45541;BME280;31265;49.680;8.608;2023-01-27T10:07:11;101222.16;;;2.20;100.00
45541;BME280;31265;49.680;8.608;2023-01-27T10:10:07;101223.91;;;2.03;100.00
45541;BME280;31265;49.680;8.608;2023-01-27T10:12:54;101222.63;;;2.19;100.00
45541;BME280;31265;49.680;8.608;2023-01-27T10:15:38;101220.16;;;2.21;100.00
45541;BME280;31265;49.680;8.608;2023-01-27T10:18:23;101218.81;;;2.10;100.00
45541;BME280;31265;49.680;8.608;2023-01-27T10:21:00;101217.50;;;2.06;100.00
45541;BME280;31265;49.680;8.608;2023-01-27T10:23:39;101218.34;;;2.18;100.00
45541;BME280;31265;49.680;8.608;2023-01-27T10:26:17;101209.88;;;2.42;100.00
45541;BME280;31265;49.680;8.608;2023-01-27T10:28:50;101203.22;;;2.48;100.00
45541;BME280;31265;49.680;8.608;2023-01-27T10:31:24;101198.88;;;2.62;100.00
45541;BME280;31265;49.680;8.608;2023-01-27T10:33:55;101204.84;;;2.61;100.00
45541;BME280;31265;49.680;8.608;2023-01-27T10:36:26;101196.22;;;2.73;100.00
45541;BME280;31265;49.680;8.608;2023-01-27T10:39:05;101196.97;;;2.74;100.00
45541;BME280;31265;49.680;8.608;2023-01-27T10:41:43;101198.06;;;2.82;100.00
45541;BME280;31265;49.680;8.608;2023-01-27T10:48:20;101190.00;;;3.10;100.00
45541;BME280;31265;49.680;8.608;2023-01-27T10:50:54;101182.78;;;3.13;100.00
45541;BME280;31265;49.680;8.608;2023-01-27T10:53:29;101186.16;;;3.34;100.00
45541;BME280;31265;49.680;8.608;2023-01-27T10:56:03;101185.09;;;3.20;100.00
45541;BME280;31265;49.680;8.608;2023-01-27T10:58:48;101186.00;;;3.06;100.00
45541;BME280;31265;49.680;8.608;2023-01-27T11:01:24;101189.03;;;3.13;100.00
45541;BME280;31265;49.680;8.608;2023-01-27T11:04:03;101176.16;;;3.31;100.00
45541;BME280;31265;49.680;8.608;2023-01-27T11:06:39;101177.97;;;3.39;100.00
45541;BME280;31265;49.680;8.608;2023-01-27T11:09:16;101177.22;;;3.39;100.00
45541;BME280;31265;49.680;8.608;2023-01-27T11:11:53;101181.75;;;3.53;100.00
45541;BME280;31265;49.680;8.608;2023-01-27T11:14:30;101172.78;;;3.58;100.00
45541;BME280;31265;49.680;8.608;2023-01-27T11:17:03;101175.66;;;3.27;100.00
45541;BME280;31265;49.680;8.608;2023-01-27T11:19:43;101182.47;;;3.48;100.00
45541;BME280;31265;49.680;8.608;2023-01-27T11:22:20;101172.66;;;3.30;100.00
45541;BME280;31265;49.680;8.608;2023-01-27T11:24:58;101168.09;;;3.59;100.00
45541;BME280;31265;49.680;8.608;2023-01-27T11:27:54;101179.34;;;3.23;100.00
45541;BME280;31265;49.680;8.608;2023-01-27T11:30:39;101179.72;;;2.99;100.00
45541;BME280;31265;49.680;8.608;2023-01-27T11:33:16;101179.41;;;3.29;100.00
45541;BME280;31265;49.680;8.608;2023-01-27T11:35:48;101170.72;;;3.36;100.00
45541;BME280;31265;49.680;8.608;2023-01-27T11:38:22;101174.50;;;3.44;100.00
45541;BME280;31265;49.680;8.608;2023-01-27T11:40:53;101185.06;;;3.14;100.00
45541;BME280;31265;49.680;8.608;2023-01-27T11:43:24;101168.53;;;3.03;100.00
45541;BME280;31265;49.680;8.608;2023-01-27T11:45:59;101173.78;;;3.07;100.00
45541;BME280;31265;49.680;8.608;2023-01-27T11:48:35;101162.09;;;3.12;100.00
45541;BME280;31265;49.680;8.608;2023-01-27T11:51:12;101169.16;;;3.24;100.00
45541;BME280;31265;49.680;8.608;2023-01-27T11:53:43;101163.34;;;3.11;100.00
45541;BME280;31265;49.680;8.608;2023-01-27T11:56:16;101167.94;;;3.31;100.00
45541;BME280;31265;49.680;8.608;2023-01-27T11:58:49;101174.16;;;3.31;100.00
45541;BME280;31265;49.680;8.608;2023-01-27T12:01:35;101167.94;;;3.31;100.00
45541;BME280;31265;49.680;8.608;2023-01-27T12:04:11;101167.66;;;3.29;100.00
45541;BME280;31265;49.680;8.608;2023-01-27T12:06:47;101164.63;;;3.15;100.00
45541;BME280;31265;49.680;8.608;2023-01-27T12:09:29;101167.22;;;3.36;100.00
45541;BME280;31265;49.680;8.608;2023-01-27T12:12:21;101160.44;;;3.31;100.00
45541;BME280;31265;49.680;8.608;2023-01-27T12:14:51;101160.72;;;3.33;100.00
45541;BME280;31265;49.680;8.608;2023-01-27T12:17:29;101159.25;;;3.38;100.00
45541;BME280;31265;49.680;8.608;2023-01-27T12:20:01;101159.25;;;3.43;100.00
45541;BME280;31265;49.680;8.608;2023-01-27T12:22:36;101153.72;;;3.27;100.00
45541;BME280;31265;49.680;8.608;2023-01-27T12:25:13;101153.72;;;3.32;100.00
45541;BME280;31265;49.680;8.608;2023-01-27T12:27:47;101155.09;;;3.54;100.00
45541;BME280;31265;49.680;8.608;2023-01-27T12:30:20;101155.56;;;3.52;100.00
45541;BME280;31265;49.680;8.608;2023-01-27T12:32:50;101157.31;;;3.55;100.00
45541;BME280;31265;49.680;8.608;2023-01-27T12:35:21;101157.84;;;3.54;100.00
45541;BME280;31265;49.680;8.608;2023-01-27T12:37:54;101149.81;;;3.50;100.00
45541;BME280;31265;49.680;8.608;2023-01-27T12:40:26;101153.34;;;3.56;100.00
45541;BME280;31265;49.680;8.608;2023-01-27T12:43:07;101150.09;;;3.58;100.00
45541;BME280;31265;49.680;8.608;2023-01-27T12:45:37;101158.59;;;3.60;100.00
45541;BME280;31265;49.680;8.608;2023-01-27T12:48:19;101151.56;;;3.48;100.00
45541;BME280;31265;49.680;8.608;2023-01-27T12:51:04;101149.25;;;3.29;100.00
45541;BME280;31265;49.680;8.608;2023-01-27T12:53:33;101152.19;;;3.20;100.00
45541;BME280;31265;49.680;8.608;2023-01-27T12:56:09;101147.56;;;3.00;100.00
45541;BME280;31265;49.680;8.608;2023-01-27T12:58:40;101154.66;;;2.80;100.00
45541;BME280;31265;49.680;8.608;2023-01-27T13:01:27;101150.31;;;2.63;100.00
45541;BME280;31265;49.680;8.608;2023-01-27T13:04:02;101154.69;;;2.86;100.00
45541;BME280;31265;49.680;8.608;2023-01-27T13:06:40;101144.94;;;3.17;100.00
45541;BME280;31265;49.680;8.608;2023-01-27T13:09:22;101147.16;;;3.18;100.00
45541;BME280;31265;49.680;8.608;2023-01-27T13:11:53;101156.31;;;3.47;100.00
45541;BME280;31265;49.680;8.608;2023-01-27T13:14:22;101152.66;;;3.78;100.00
45541;BME280;31265;49.680;8.608;2023-01-27T13:16:56;101135.75;;;3.91;100.00
45541;BME280;31265;49.680;8.608;2023-01-27T13:19:34;101140.50;;;4.02;100.00
45541;BME280;31265;49.680;8.608;2023-01-27T13:22:05;101141.19;;;3.85;100.00
45541;BME280;31265;49.680;8.608;2023-01-27T13:24:36;101137.78;;;4.19;100.00